Time;durP1;ratioP1;P1;durP2;ratioP2;P2;SDS_P1;SDS_P2;PMS_P1;PMS_P2;Temp;Humidity;BMP_temperature;BMP_pressure;BME280_temperature;BME280_humidity;BME280_pressure;Samples;Min_cycle;Max_cycle;Signal;HPM_P1;HPM_P2
2021/08/13 00:00:46;;;;;;;6.55;4.90;;;16.50;99.90;;;15.29;90.36;101958.31;5008411;28;20029;-77
2021/08/13 00:03:13;;;;;;;9.25;4.43;;;16.40;99.90;;;15.24;89.95;101970.94;5032302;28;20354;-77
2021/08/13 00:05:39;;;;;;;6.75;4.55;;;16.40;99.90;;;15.21;90.11;101957.84;5030400;28;20041;-77
2021/08/13 00:08:06;;;;;;;12.23;4.45;;;16.30;99.90;;;15.21;89.57;101950.72;5016194;28;20079;-77
2021/08/13 00:10:32;;;;;;;9.65;5.20;;;16.30;99.90;;;15.13;90.42;101997.97;5030147;28;20044;-77
2021/08/13 00:12:58;;;;;;;7.47;4.60;;;16.20;99.90;;;15.12;90.23;102073.19;5024979;28;20028;-78
2021/08/13 00:15:28;;;;;;;7.32;4.82;;;16.20;99.90;;;15.11;90.30;102034.31;5016322;28;20393;-77
2021/08/13 00:17:54;;;;;;;6.68;5.00;;;16.20;99.90;;;15.16;89.11;102011.09;5007195;28;20080;-77
2021/08/13 00:20:20;;;;;;;5.28;4.32;;;16.30;99.90;;;15.17;89.13;102005.72;5030927;28;20376;-77
2021/08/13 00:22:48;;;;;;;10.80;4.78;;;16.20;99.90;;;15.12;89.77;101999.78;5030417;28;20029;-77
2021/08/13 00:25:15;;;;;;;8.85;5.65;;;16.20;99.90;;;15.08;89.38;101992.88;5024792;28;20033;-77
2021/08/13 00:27:41;;;;;;;7.90;4.90;;;16.20;99.90;;;15.15;88.61;102001.41;5022877;28;20037;-77
2021/08/13 00:30:08;;;;;;;9.43;4.57;;;16.20;99.90;;;15.26;87.06;101999.13;5012169;28;20033;-77
2021/08/13 00:32:34;;;;;;;8.63;4.55;;;16.30;99.90;;;15.27;87.05;101976.97;5031428;28;20052;-77
2021/08/13 00:35:01;;;;;;;8.27;4.82;;;16.30;99.90;;;15.25;87.36;101973.53;5029852;28;20033;-78
2021/08/13 00:37:27;;;;;;;6.93;4.70;;;16.40;99.90;;;15.26;87.24;101974.41;4998795;28;20151;-77
2021/08/13 00:39:53;;;;;;;12.15;4.78;;;16.30;99.90;;;15.21;88.00;101969.31;4989315;28;20511;-77
2021/08/13 00:42:20;;;;;;;11.15;4.57;;;16.30;99.90;;;15.28;86.88;101983.16;5024033;28;20120;-77
2021/08/13 00:44:46;;;;;;;8.80;4.93;;;16.40;99.90;;;15.34;85.71;101978.41;5031074;28;20052;-77
2021/08/13 00:47:12;;;;;;;7.20;4.70;;;16.40;99.90;;;15.41;85.80;101978.13;5048262;28;20528;-77
2021/08/13 00:49:38;;;;;;;13.75;4.32;;;16.40;99.90;;;15.32;86.66;101969.66;5014137;28;20053;-77
2021/08/13 00:52:05;;;;;;;8.25;4.95;;;16.40;99.90;;;15.24;87.21;101953.22;5029907;28;20425;-77
2021/08/13 00:54:31;;;;;;;9.52;4.72;;;16.30;99.90;;;15.26;86.35;101954.03;5031338;28;20075;-77
2021/08/13 00:56:57;;;;;;;6.65;4.60;;;16.40;99.90;;;15.37;85.63;101970.28;5013192;28;20039;-77
2021/08/13 00:59:23;;;;;;;6.25;4.10;;;16.40;99.90;;;15.28;87.05;101953.97;5028788;28;20079;-77
2021/08/13 01:01:49;;;;;;;6.60;4.70;;;16.30;99.90;;;15.13;87.58;101943.13;5031628;28;20029;-77
2021/08/13 01:04:19;;;;;;;5.68;4.47;;;16.30;99.90;;;15.16;86.83;101945.66;5021568;28;20040;-77
2021/08/13 01:06:45;;;;;;;10.25;4.38;;;16.30;99.90;;;15.26;86.41;101948.72;5030011;28;20031;-77
2021/08/13 01:09:11;;;;;;;7.68;4.63;;;16.40;99.90;;;15.35;86.27;101964.19;5019811;28;20037;-78
2021/08/13 01:11:54;;;;;;;6.90;4.80;;;16.40;99.90;;;15.29;86.30;101945.94;5031986;28;20501;-77
2021/08/13 01:14:47;;;;;;;6.13;4.40;;;16.30;99.90;;;15.24;86.63;101945.28;5030496;28;20033;-78
2021/08/13 01:17:20;;;;;;;6.93;4.38;;;16.40;99.90;;;15.33;85.23;101955.47;5006654;28;20020;-77
2021/08/13 01:20:14;;;;;;;6.38;4.78;;;16.50;99.90;;;15.51;84.02;101969.66;5021640;28;20037;-78
2021/08/13 01:22:55;;;;;;;6.53;4.28;;;16.60;99.90;;;15.56;83.91;101966.78;5047268;28;20041;-77
2021/08/13 01:25:26;;;;;;;9.77;4.50;;;16.70;99.90;;;15.60;83.19;101960.38;5030166;28;20029;-77
2021/08/13 01:27:56;;;;;;;9.50;4.55;;;16.70;99.90;;;15.65;83.14;101973.44;5031546;28;20036;-77
2021/08/13 01:30:26;;;;;;;8.07;5.05;;;16.70;99.90;;;15.65;82.94;101965.47;5013404;28;20500;-77
2021/08/13 01:32:57;;;;;;;9.15;5.18;;;16.70;99.90;;;15.66;83.27;101967.19;5010774;28;20486;-77
2021/08/13 01:35:46;;;;;;;8.63;4.35;;;16.70;99.90;;;15.59;83.40;101945.38;5030467;28;20029;-77
2021/08/13 01:38:26;;;;;;;6.20;4.82;;;16.70;99.90;;;15.48;84.78;101932.63;5045710;28;20031;-77
2021/08/13 01:40:59;;;;;;;7.78;4.50;;;16.60;99.90;;;15.41;85.93;102079.84;5044728;28;20032;-77
2021/08/13 01:43:28;;;;;;;8.65;4.72;;;16.50;99.90;;;15.26;87.08;101990.31;5031841;28;20052;-77
2021/08/13 01:45:55;;;;;;;7.03;4.85;;;16.30;99.90;;;15.12;88.39;101952.03;5029641;28;20036;-77
2021/08/13 01:48:26;;;;;;;6.95;4.20;;;16.20;99.90;;;15.07;88.53;101950.50;5004986;28;20029;-77
2021/08/13 01:50:52;;;;;;;8.65;4.53;;;16.20;99.90;;;15.08;87.43;101949.59;5005197;28;20029;-77
2021/08/13 01:53:22;;;;;;;10.52;4.30;;;16.20;99.90;;;15.09;87.41;101962.75;5013354;28;20381;-77
2021/08/13 01:55:52;;;;;;;6.95;4.80;;;16.20;99.90;;;15.13;87.25;101945.78;5013821;28;20109;-77
2021/08/13 01:58:19;;;;;;;10.60;4.75;;;16.30;99.90;;;15.14;87.28;101925.41;5009356;28;20036;-77
2021/08/13 02:00:46;;;;;;;6.13;4.75;;;16.20;99.90;;;15.12;87.08;101929.94;5005837;28;20384;-77
2021/08/13 02:03:14;;;;;;;8.98;4.78;;;16.20;99.90;;;15.11;87.39;101930.84;5020276;28;20108;-77
2021/08/13 02:05:42;;;;;;;10.60;5.43;;;16.20;99.90;;;15.21;86.20;101950.72;5028969;28;20128;-77
2021/08/13 02:08:10;;;;;;;9.75;4.68;;;16.40;99.90;;;15.37;85.46;101956.16;5006242;28;20036;-77
2021/08/13 02:10:39;;;;;;;8.98;4.97;;;16.40;99.90;;;15.41;84.91;101978.13;5012691;28;20040;-77
2021/08/13 02:13:06;;;;;;;7.57;5.38;;;16.50;99.90;;;15.37;84.82;101942.91;5013699;28;20451;-77
2021/08/13 02:15:37;;;;;;;10.98;5.22;;;16.50;99.90;;;15.45;84.49;101956.69;5013149;28;20027;-77
2021/08/13 02:18:16;;;;;;;11.18;4.90;;;16.50;99.90;;;15.39;84.74;101939.22;5045053;28;20025;-77
2021/08/13 02:20:45;;;;;;;7.70;5.15;;;16.40;99.90;;;15.31;85.00;101943.19;5031213;28;20060;-77
2021/08/13 02:23:11;;;;;;;7.32;5.32;;;16.40;99.90;;;15.25;85.59;101968.22;5029238;28;20025;-78
2021/08/13 02:25:38;;;;;;;6.97;4.80;;;16.30;99.90;;;15.22;85.68;101936.50;5030090;28;20037;-77
2021/08/13 02:28:04;;;;;;;6.13;4.88;;;16.30;99.90;;;15.06;87.23;101917.81;5028566;28;20025;-77
2021/08/13 02:30:30;;;;;;;7.75;5.20;;;16.10;99.90;;;14.92;88.29;101894.59;5030782;28;20031;-77
2021/08/13 02:32:56;;;;;;;8.43;5.80;;;16.00;99.90;;;14.85;89.08;101900.25;5012733;28;20435;-77
2021/08/13 02:35:23;;;;;;;6.70;5.10;;;15.90;99.90;;;14.71;89.76;101879.66;5036023;28;20033;-77
2021/08/13 02:38:01;;;;;;;8.68;5.80;;;15.90;99.90;;;14.77;88.70;101882.91;5039355;28;20040;-77
2021/08/13 02:40:54;;;;;;;7.78;5.15;;;16.00;99.90;;;14.97;87.74;101900.53;5020498;28;20055;-77
2021/08/13 02:43:29;;;;;;;11.35;5.22;;;16.00;99.90;;;14.91;87.81;101897.31;5010778;28;20090;-77
2021/08/13 02:46:01;;;;;;;9.85;5.47;;;16.10;99.90;;;15.14;86.68;101938.66;5019964;28;20116;-77
2021/08/13 02:48:28;;;;;;;7.63;5.10;;;16.20;99.90;;;15.17;86.33;101941.19;5021702;28;20047;-78
2021/08/13 02:50:59;;;;;;;7.95;5.63;;;16.20;99.90;;;15.24;85.74;101931.16;5029770;28;20645;-77
2021/08/13 02:53:27;;;;;;;7.65;5.57;;;16.30;99.90;;;15.29;85.10;101930.00;5032089;28;20650;-77
2021/08/13 02:56:12;;;;;;;11.32;5.78;;;16.30;99.90;;;15.25;85.38;101922.25;5033344;28;20437;-78
2021/08/13 02:59:06;;;;;;;9.65;4.88;;;16.30;99.90;;;15.14;86.21;101905.06;5032416;28;20033;-77
2021/08/13 03:01:37;;;;;;;7.93;5.57;;;16.20;99.90;;;15.05;86.88;101888.69;5005760;28;20025;-77
2021/08/13 03:04:08;;;;;;;10.55;5.50;;;16.10;99.90;;;14.93;87.47;101888.34;5033068;28;20085;-77
2021/08/13 03:06:39;;;;;;;7.90;5.57;;;16.00;99.90;;;14.98;87.21;101899.59;5030926;28;20036;-77
2021/08/13 03:09:06;;;;;;;7.05;5.13;;;16.10;99.90;;;15.05;86.81;101894.84;5032993;28;20029;-77
2021/08/13 03:11:40;;;;;;;8.40;5.85;;;16.10;99.90;;;14.90;88.00;101875.25;5016676;28;20025;-77
2021/08/13 03:14:08;;;;;;;8.98;5.82;;;16.00;99.90;;;14.85;87.93;102012.47;5063630;28;20037;-77
2021/08/13 03:16:35;;;;;;;10.38;6.05;;;16.00;99.90;;;14.96;87.39;101909.41;5017706;28;20384;-77
2021/08/13 03:19:03;;;;;;;9.05;5.88;;;16.10;99.90;;;14.96;87.25;101966.91;5030866;28;20041;-77
2021/08/13 03:21:31;;;;;;;10.65;5.65;;;16.00;99.90;;;15.05;86.55;101945.25;5032351;28;20037;-77
2021/08/13 03:23:58;;;;;;;9.98;5.45;;;16.10;99.90;;;15.04;86.50;101901.09;5033004;28;20113;-77
2021/08/13 03:26:27;;;;;;;9.30;5.63;;;16.20;99.90;;;15.12;86.33;101909.56;5022701;28;20432;-77
2021/08/13 03:28:54;;;;;;;6.07;5.22;;;16.30;99.90;;;15.18;85.45;101930.53;5032063;28;20033;-77
2021/08/13 03:31:37;;;;;;;14.10;6.05;;;16.30;99.90;;;15.24;85.68;101918.72;5032019;28;20041;-77
2021/08/13 03:34:07;;;;;;;13.13;6.03;;;16.30;99.90;;;15.27;85.31;101929.22;5032727;28;20049;-77
2021/08/13 03:36:35;;;;;;;21.42;6.22;;;16.30;99.90;;;15.18;85.07;101909.28;5026402;28;20029;-78
2021/08/13 03:39:02;;;;;;;11.13;6.10;;;16.30;99.90;;;15.18;85.67;101917.25;5014526;28;20105;-77
2021/08/13 03:41:27;;;;;;;10.70;6.38;;;16.20;99.90;;;15.15;85.54;101908.56;5017468;28;20036;-77
2021/08/13 03:43:54;;;;;;;13.13;5.47;;;16.20;99.90;;;15.12;85.57;101911.38;5034214;28;20095;-77
2021/08/13 03:46:20;;;;;;;8.50;5.97;;;16.20;99.90;;;15.13;85.56;101923.69;5015037;28;20041;-77
2021/08/13 03:48:46;;;;;;;8.27;5.68;;;16.20;99.90;;;15.14;85.96;101906.81;5006508;28;20024;-77
2021/08/13 03:51:12;;;;;;;10.95;6.25;;;16.20;99.90;;;15.16;85.38;101911.16;5014277;28;20025;-77
2021/08/13 03:53:38;;;;;;;10.80;5.72;;;16.20;99.90;;;15.21;85.70;101912.72;5031473;28;20438;-77
2021/08/13 03:56:04;;;;;;;9.60;5.57;;;16.30;99.90;;;15.23;85.39;101905.56;5032376;28;20025;-77
2021/08/13 03:58:30;;;;;;;6.47;5.32;;;16.30;99.90;;;15.20;85.49;101901.25;5014612;28;20036;-77
2021/08/13 04:00:56;;;;;;;8.50;5.63;;;16.20;99.90;;;15.17;85.82;101885.47;5009222;28;20369;-77
2021/08/13 04:03:22;;;;;;;15.05;5.78;;;16.20;99.90;;;15.20;85.71;101895.06;4999420;28;20040;-77
2021/08/13 04:05:48;;;;;;;8.52;5.05;;;16.20;99.90;;;15.18;85.79;102213.50;5013619;28;20055;-78
2021/08/13 04:08:14;;;;;;;8.77;5.63;;;16.30;99.90;;;15.23;85.57;102035.56;4992142;28;20116;-77
2021/08/13 04:10:43;;;;;;;8.63;5.55;;;16.30;99.90;;;15.28;85.32;102021.16;5032444;28;20040;-77
2021/08/13 04:13:09;;;;;;;8.25;5.32;;;16.40;99.90;;;15.36;84.77;102011.03;5029720;28;20051;-77
2021/08/13 04:15:35;;;;;;;7.22;5.22;;;16.40;99.90;;;15.42;84.97;102001.94;5022902;28;20033;-77
2021/08/13 04:18:01;;;;;;;7.38;5.20;;;16.50;99.90;;;15.44;84.49;101994.75;5023989;28;20033;-78
2021/08/13 04:20:27;;;;;;;9.75;5.13;;;16.50;99.90;;;15.49;84.73;101986.59;5038595;28;20029;-77
2021/08/13 04:22:53;;;;;;;8.95;5.15;;;16.50;99.90;;;15.47;84.84;101984.00;5032789;28;20515;-77
2021/08/13 04:25:19;;;;;;;10.27;5.32;;;16.50;99.90;;;15.51;85.75;101960.84;5036936;28;20037;-77
2021/08/13 04:27:45;;;;;;;10.32;5.82;;;16.60;99.90;;;15.47;85.92;101938.88;5022663;28;20133;-76
2021/08/13 04:30:13;;;;;;;6.80;5.35;;;16.50;99.90;;;15.38;86.39;101926.91;5032068;28;20044;-76
2021/08/13 04:32:40;;;;;;;12.20;5.90;;;16.40;99.90;;;15.33;86.92;101918.31;5030554;28;20024;-77
2021/08/13 04:35:08;;;;;;;7.50;6.10;;;16.40;99.90;;;15.30;87.66;101917.59;5030323;28;20048;-76
2021/08/13 04:37:35;;;;;;;19.25;5.93;;;16.30;99.90;;;15.25;88.44;101965.56;5021416;28;20134;-76
2021/08/13 04:40:01;;;;;;;10.40;6.15;;;16.30;99.90;;;15.25;89.60;101938.16;5023270;28;20028;-77
2021/08/13 04:42:28;;;;;;;9.13;6.35;;;16.30;99.90;;;15.21;89.65;101921.53;5041554;28;20464;-76
2021/08/13 04:44:54;;;;;;;8.65;7.13;;;16.20;99.90;;;15.20;89.98;101911.00;5029453;28;20123;-76
2021/08/13 04:47:19;;;;;;;9.95;6.10;;;16.30;99.90;;;15.26;89.89;101911.56;5013402;28;20044;-77
2021/08/13 04:49:45;;;;;;;14.40;6.38;;;16.30;99.90;;;15.30;89.94;101931.72;5029636;28;20037;-76
2021/08/13 04:52:11;;;;;;;10.52;6.03;;;16.40;99.90;;;15.35;89.61;101927.03;5016063;28;20017;-76
2021/08/13 04:54:37;;;;;;;7.38;6.07;;;16.40;99.90;;;15.42;89.05;101924.97;5029737;28;20146;-77
2021/08/13 04:57:04;;;;;;;11.00;6.30;;;16.50;99.90;;;15.54;88.21;101924.38;5005447;28;20044;-77
2021/08/13 04:59:30;;;;;;;9.80;6.45;;;16.60;99.90;;;15.59;87.79;101930.34;5031592;28;20029;-76
2021/08/13 05:01:56;;;;;;;9.70;6.72;;;16.60;99.90;;;15.61;87.32;101927.59;5029365;28;20036;-76
2021/08/13 05:04:22;;;;;;;15.50;9.05;;;16.70;99.90;;;15.63;87.64;101948.75;5030666;28;20045;-76
2021/08/13 05:06:48;;;;;;;11.82;6.30;;;16.70;99.90;;;15.68;87.99;101925.50;5022832;28;20750;-77
2021/08/13 05:09:14;;;;;;;9.07;6.22;;;16.70;99.90;;;15.75;87.18;101940.25;5015267;28;20121;-77
2021/08/13 05:11:40;;;;;;;8.63;5.97;;;16.80;99.90;;;15.90;85.90;101951.91;5029443;28;20128;-77
2021/08/13 05:14:06;;;;;;;7.07;5.60;;;16.90;99.90;;;16.03;85.87;101962.78;5014481;28;20081;-77
2021/08/13 05:16:32;;;;;;;10.50;5.90;;;17.10;99.90;;;16.12;85.28;101957.00;5012935;28;20037;-77
2021/08/13 05:18:58;;;;;;;12.68;5.63;;;17.20;99.90;;;16.34;84.81;101980.69;5011389;28;20021;-78
2021/08/13 05:21:24;;;;;;;9.27;5.15;;;17.30;99.90;;;16.45;83.92;101985.44;5031474;28;20040;-77
2021/08/13 05:23:50;;;;;;;8.70;5.50;;;17.40;99.90;;;16.53;82.90;101983.25;5047974;28;20033;-77
2021/08/13 05:26:16;;;;;;;8.27;5.22;;;17.50;99.90;;;16.55;82.73;101984.91;5023400;28;20071;-77
2021/08/13 05:28:42;;;;;;;7.20;5.38;;;17.60;99.90;;;16.64;82.66;101993.34;5044794;28;20028;-77
2021/08/13 05:31:09;;;;;;;10.57;4.95;;;17.60;99.90;;;16.68;82.43;102001.06;5030678;28;20471;-77
2021/08/13 05:33:35;;;;;;;10.68;5.53;;;17.80;99.90;;;16.79;82.83;102005.84;5012907;28;22638;-78
2021/08/13 05:36:01;;;;;;;10.10;5.93;;;17.80;99.90;;;16.83;82.73;102007.44;5012963;28;20039;-76
2021/08/13 05:38:27;;;;;;;10.98;5.72;;;17.80;99.90;;;16.86;81.85;102009.91;5011405;28;20017;-77
2021/08/13 05:40:54;;;;;;;12.43;5.95;;;17.90;99.90;;;16.91;81.96;102010.56;5013214;28;20469;-77
2021/08/13 05:43:20;;;;;;;9.52;5.38;;;18.00;99.90;;;16.97;82.94;102006.69;5012649;28;20104;-77
2021/08/13 05:45:46;;;;;;;8.50;5.90;;;18.00;99.90;;;16.99;82.23;102016.31;5038094;28;20577;-77
2021/08/13 05:48:12;;;;;;;8.43;5.15;;;18.00;99.90;;;17.01;81.74;102019.75;5029140;28;20029;-77
2021/08/13 05:50:40;;;;;;;6.88;5.13;;;18.10;99.90;;;17.05;81.76;102008.94;5030476;28;20079;-77
2021/08/13 05:53:06;;;;;;;8.38;5.40;;;18.10;99.90;;;17.05;80.74;102011.63;4999078;28;20042;-77
2021/08/13 05:55:32;;;;;;;8.52;6.00;;;18.00;99.90;;;17.05;81.71;102012.47;5030109;28;20032;-77
2021/08/13 05:57:58;;;;;;;8.27;5.72;;;18.10;99.90;;;17.10;83.09;102007.75;5014914;28;20032;-78
2021/08/13 06:00:24;;;;;;;8.32;6.13;;;18.20;99.90;;;17.18;82.43;102052.59;5030983;28;20032;-78
2021/08/13 06:02:57;;;;;;;10.55;6.00;;;18.20;99.90;;;17.24;83.12;102025.66;4997835;28;20033;-78
2021/08/13 06:05:23;;;;;;;9.25;6.13;;;18.30;99.90;;;17.37;82.66;102032.03;5011660;28;20033;-78
2021/08/13 06:07:50;;;;;;;8.23;5.55;;;18.50;99.90;;;17.51;82.07;102044.56;5023807;28;20518;-78
2021/08/13 06:10:20;;;;;;;8.05;5.57;;;18.60;99.90;;;17.66;80.69;102058.84;5021858;28;20032;-77
2021/08/13 06:12:47;;;;;;;8.40;5.80;;;18.70;99.90;;;17.83;80.09;102060.59;5020176;28;20441;-77
2021/08/13 06:15:15;;;;;;;8.10;4.75;;;19.00;99.90;;;18.04;79.24;102072.72;5014636;28;20037;-77
2021/08/13 06:17:42;;;;;;;10.05;5.10;;;19.20;99.90;;;18.25;77.57;102085.78;5028311;28;20549;-77
2021/08/13 06:20:12;;;;;;;12.13;5.63;;;19.30;99.90;;;18.55;76.19;102092.94;4992546;28;20026;-77
2021/08/13 06:22:38;;;;;;;7.43;5.10;;;19.60;99.90;;;18.85;74.82;102103.63;4982465;28;20033;-77
2021/08/13 06:25:06;;;;;;;9.00;4.93;;;19.90;99.90;;;19.10;74.83;102105.69;5023433;28;20033;-77
2021/08/13 06:27:33;;;;;;;11.20;4.93;;;20.20;99.90;;;19.35;71.95;102115.75;5047773;28;20045;-77
2021/08/13 06:30:00;;;;;;;10.23;5.20;;;20.40;99.90;;;19.68;71.79;102142.16;5020822;28;20034;-77
2021/08/13 06:32:26;;;;;;;7.85;4.88;;;20.60;99.90;;;19.83;69.71;102137.69;5047569;28;20108;-77
2021/08/13 06:34:52;;;;;;;7.95;4.82;;;20.80;99.90;;;19.84;71.38;102125.19;5033604;28;20017;-77
2021/08/13 06:37:20;;;;;;;7.13;5.18;;;20.70;99.90;;;19.68;71.18;102256.22;5031836;28;20029;-77
2021/08/13 06:39:46;;;;;;;7.28;4.95;;;20.80;99.90;;;19.81;70.48;102243.00;5017071;28;20044;-77
2021/08/13 06:45:53;;;;;;;10.18;4.70;;;20.80;99.90;;;19.80;69.96;102223.41;5032958;28;20102;-85
2021/08/13 06:48:18;;;;;;;13.43;5.30;;;20.70;99.90;;;19.94;70.59;102227.91;5016054;28;20060;-78
2021/08/13 06:50:44;;;;;;;6.97;4.32;;;20.90;99.90;;;20.16;70.42;102251.47;5033856;28;20029;-77
2021/08/13 06:53:10;;;;;;;5.50;4.50;;;21.00;99.90;;;20.33;67.88;102273.63;5031635;28;20506;-77
2021/08/13 06:55:36;;;;;;;12.25;4.10;;;21.90;99.90;;;22.59;62.26;102417.56;5032755;28;20123;-77
2021/08/13 06:58:04;;;;;;;6.07;4.05;;;23.90;99.90;;;24.46;54.84;102650.38;5048361;28;20036;-77
2021/08/13 07:00:30;;;;;;;6.68;4.35;;;24.50;99.90;;;24.53;53.62;102432.69;5025258;28;20132;-77
2021/08/13 07:02:56;;;;;;;7.82;4.10;;;24.90;99.90;;;24.31;54.55;102376.97;5032631;28;20036;-78
2021/08/13 07:05:22;;;;;;;8.80;5.05;;;24.60;99.90;;;23.93;55.00;102341.34;5023651;28;20037;-77
2021/08/13 07:07:48;;;;;;;9.77;4.88;;;24.20;99.90;;;23.32;55.65;102273.44;5033710;28;20025;-77
2021/08/13 07:10:15;;;;;;;5.70;4.25;;;23.50;99.90;;;22.56;58.34;102204.84;5033363;28;21026;-77
2021/08/13 07:12:41;;;;;;;11.70;4.55;;;23.00;99.90;;;22.19;60.13;102175.31;5024364;28;20465;-77
2021/08/13 07:15:10;;;;;;;12.50;4.20;;;22.70;99.90;;;21.90;62.25;102146.13;5032536;28;20104;-78
2021/08/13 07:17:37;;;;;;;11.13;4.35;;;22.70;99.90;;;22.01;60.82;102162.28;5030879;28;20036;-77
2021/08/13 07:20:06;;;;;;;9.45;5.18;;;23.00;99.90;;;22.65;59.94;102223.78;5025438;28;20037;-78
2021/08/13 07:22:32;;;;;;;14.00;5.22;;;23.40;99.90;;;23.18;58.59;102250.31;5033001;28;20037;-77
2021/08/13 07:24:59;;;;;;;9.18;4.80;;;23.60;99.90;;;23.20;57.57;102239.47;5029083;28;20039;-78
2021/08/13 07:27:27;;;;;;;11.60;5.20;;;23.70;99.90;;;23.57;58.78;102274.25;5031420;28;20448;-78
2021/08/13 07:29:54;;;;;;;7.13;4.95;;;24.10;99.90;;;23.63;56.56;102266.56;5029452;28;20045;-77
2021/08/13 07:32:20;;;;;;;6.65;4.97;;;24.10;99.90;;;23.90;55.60;102268.09;5034442;28;20044;-77
2021/08/13 07:34:46;;;;;;;7.32;5.18;;;24.20;99.90;;;24.13;54.96;102285.94;5006421;28;20923;-77
2021/08/13 07:37:12;;;;;;;13.25;5.00;;;24.90;99.90;;;25.37;52.02;102379.19;5014513;28;20032;-77
2021/08/13 07:39:38;;;;;;;10.02;4.85;;;25.90;99.90;;;26.50;49.14;102416.34;5031176;28;20025;-77
2021/08/13 07:42:04;;;;;;;9.00;4.60;;;26.70;99.90;;;27.30;47.02;102507.47;5035274;28;20033;-77
2021/08/13 07:44:30;;;;;;;7.68;5.50;;;27.40;99.90;;;28.11;44.14;102664.31;5015233;28;20453;-78
2021/08/13 07:46:56;;;;;;;6.45;4.47;;;28.10;99.90;;;28.95;43.01;102646.66;4998623;28;20033;-78
2021/08/13 07:49:22;;;;;;;12.63;5.15;;;28.60;99.50;;;29.38;41.50;102618.13;5021706;28;20377;-78
2021/08/13 07:51:48;;;;;;;7.40;5.10;;;28.60;99.90;;;31.07;38.50;102661.78;5030714;28;20055;-78
2021/08/13 07:54:14;;;;;;;10.93;5.22;;;30.50;96.90;;;31.21;37.70;102624.97;5023293;28;20046;-78
2021/08/13 07:56:40;;;;;;;7.57;5.35;;;30.10;96.20;;;30.61;37.84;102529.75;5032690;28;20048;-78
2021/08/13 07:59:06;;;;;;;12.25;5.05;;;30.10;96.40;;;30.95;37.90;102497.16;5031234;28;20044;-78
2021/08/13 08:01:32;;;;;;;8.60;4.85;;;30.80;96.00;;;32.01;36.38;102574.72;5024112;28;20025;-78
2021/08/13 08:03:58;;;;;;;8.82;5.07;;;31.60;95.20;;;32.77;35.58;102605.41;5016187;28;20053;-75
2021/08/13 08:06:24;;;;;;;11.23;5.22;;;31.50;94.00;;;32.44;35.35;102543.56;5015996;28;21563;-76
2021/08/13 08:08:51;;;;;;;8.50;4.97;;;32.10;95.10;;;33.01;36.54;102567.13;5003796;28;20017;-76
2021/08/13 08:11:17;;;;;;;7.53;4.88;;;32.80;94.10;;;33.33;36.20;102638.16;5014670;28;20025;-76
2021/08/13 08:13:42;;;;;;;12.70;5.05;;;33.70;93.40;;;34.00;35.56;102665.03;5034076;28;20013;-76
2021/08/13 08:16:08;;;;;;;9.32;5.35;;;34.20;92.20;;;33.80;33.74;102555.31;5030545;28;20098;-76
2021/08/13 08:18:34;;;;;;;9.50;5.00;;;34.00;90.90;;;33.09;34.72;102476.22;5035246;28;20072;-76
2021/08/13 08:21:00;;;;;;;11.45;5.10;;;33.60;91.90;;;32.67;36.25;102406.50;5043605;28;20123;-76
2021/08/13 08:23:26;;;;;;;8.63;5.40;;;33.50;91.80;;;33.61;35.04;102502.91;5032355;28;20411;-76
2021/08/13 08:25:52;;;;;;;8.38;4.97;;;33.30;91.00;;;33.61;34.13;102467.38;5047004;28;20512;-76
2021/08/13 08:28:18;;;;;;;6.57;4.55;;;33.30;90.20;;;32.50;34.72;102313.81;5015330;28;20043;-76
2021/08/13 08:30:44;;;;;;;11.50;5.10;;;32.20;91.10;;;32.10;35.32;103372.13;5031324;28;20055;-76
2021/08/13 08:33:10;;;;;;;11.07;5.20;;;32.30;91.80;;;32.94;34.35;103165.50;5014530;28;20056;-76
2021/08/13 08:35:36;;;;;;;5.85;4.50;;;33.00;92.10;;;33.29;34.70;103132.66;5030014;28;21108;-76
2021/08/13 08:38:02;;;;;;;8.80;5.15;;;33.50;91.50;;;33.43;35.15;103097.53;5031807;28;20228;-76
2021/08/13 08:40:36;;;;;;;6.82;5.15;;;33.80;90.80;;;32.83;36.24;103129.31;5020504;28;20033;-75
2021/08/13 08:43:08;;;;;;;7.93;5.13;;;33.90;90.40;;;32.99;35.32;103094.97;5031260;28;20040;-77
2021/08/13 08:45:39;;;;;;;10.18;5.43;;;33.60;89.70;;;32.44;35.58;102976.16;5030980;28;20044;-76
2021/08/13 08:48:09;;;;;;;9.38;5.45;;;33.30;91.40;;;32.20;38.42;102886.94;5048026;28;20025;-78
2021/08/13 08:50:41;;;;;;;9.20;4.50;;;33.40;90.10;;;32.60;35.92;102749.09;5026182;28;20021;-76
2021/08/13 08:53:23;;;;;;;9.82;5.20;;;33.40;91.40;;;31.81;37.41;102658.56;5019466;28;20040;-75
2021/08/13 08:55:54;;;;;;;12.35;5.13;;;33.00;90.60;;;31.35;39.68;102584.53;5041300;28;20416;-75
2021/08/13 08:58:24;;;;;;;8.23;5.78;;;33.10;91.00;;;31.66;38.51;102517.63;5029822;28;20128;-75
2021/08/13 09:01:03;;;;;;;11.63;5.57;;;33.10;90.30;;;30.51;38.80;102357.75;5008448;28;20880;-76
2021/08/13 09:03:52;;;;;;;13.85;5.90;;;32.30;90.70;;;30.34;41.65;102384.84;4978270;28;20556;-75
2021/08/13 09:06:37;;;;;;;11.63;5.28;;;32.00;92.40;;;30.38;42.36;102386.25;4987499;28;20033;-75
2021/08/13 09:09:03;;;;;;;5.47;4.75;;;32.00;91.30;;;30.77;39.33;102398.47;4971080;28;20036;-75
2021/08/13 09:11:47;;;;;;;7.30;5.10;;;32.00;91.70;;;30.54;39.16;102361.03;4994332;28;20045;-78
2021/08/13 09:15:00;;;;;;;11.50;5.35;;;31.60;92.30;;;30.64;39.24;102385.34;4995935;28;20061;-76
2021/08/13 09:17:47;;;;;;;9.10;5.10;;;31.70;93.10;;;30.54;41.96;102346.56;5010841;28;20128;-78
2021/08/13 09:20:53;;;;;;;10.70;5.60;;;31.70;92.30;;;30.83;40.32;102349.72;5021509;28;20178;-75
2021/08/13 09:24:25;;;;;;;11.82;6.05;;;31.20;92.30;;;30.01;40.17;102240.69;4997029;28;20040;-76
2021/08/13 09:27:56;;;;;;;10.90;5.20;;;30.80;93.20;;;30.11;42.03;102258.72;4985871;28;20029;-76
2021/08/13 09:31:42;;;;;;;7.32;4.93;;;30.90;93.50;;;29.42;40.47;102201.69;4985607;28;20044;-77
2021/08/13 09:34:58;;;;;;;8.82;5.53;;;29.60;94.00;;;29.28;42.03;102359.59;4977750;28;20068;-76
2021/08/13 09:38:13;;;;;;;8.82;5.60;;;29.80;93.90;;;29.13;42.17;102269.78;4988442;28;20041;-75
2021/08/13 09:41:28;;;;;;;9.25;4.65;;;29.30;93.90;;;29.01;42.06;102229.34;5005454;28;20025;-75
2021/08/13 09:44:09;;;;;;;6.88;4.65;;;29.60;94.30;;;29.26;41.60;102223.28;4988409;28;20044;-75
2021/08/13 09:47:26;;;;;;;11.77;5.43;;;29.30;93.80;;;29.22;42.76;102242.59;4970206;28;20037;-75
2021/08/13 09:50:58;;;;;;;8.40;5.05;;;29.70;95.60;;;29.69;41.28;102265.81;4996997;28;20033;-76
2021/08/13 09:54:10;;;;;;;8.65;5.15;;;29.60;93.70;;;28.81;41.66;102151.88;4985805;28;22152;-76
2021/08/13 09:58:00;;;;;;;12.43;5.70;;;29.30;94.50;;;29.29;41.97;102207.53;4985411;28;20497;-77
2021/08/13 10:01:04;;;;;;;8.00;5.07;;;29.50;95.20;;;29.11;42.98;102169.59;4987888;28;20166;-75
2021/08/13 10:03:59;;;;;;;7.03;5.25;;;29.20;93.90;;;28.70;41.93;102128.59;5001450;28;20061;-75
2021/08/13 10:07:17;;;;;;;7.53;5.47;;;28.80;94.20;;;28.49;42.07;102109.09;4985792;28;20108;-76
2021/08/13 10:10:24;;;;;;;11.88;5.88;;;29.20;96.00;;;29.47;41.42;102215.63;4988621;28;20107;-76
2021/08/13 10:13:53;;;;;;;9.02;6.05;;;29.20;93.80;;;28.83;41.99;102112.78;4988901;28;20044;-76
2021/08/13 10:16:42;;;;;;;9.50;6.18;;;29.40;95.10;;;29.36;42.65;102170.63;4995049;28;20033;-76
2021/08/13 10:19:36;;;;;;;12.48;5.97;;;29.10;93.50;;;28.62;41.79;102083.31;5006623;28;20029;-75
2021/08/13 10:22:03;;;;;;;12.40;6.30;;;28.50;94.00;;;28.19;42.60;102049.75;4988026;28;20495;-80
2021/08/13 10:24:30;;;;;;;11.68;5.78;;;29.00;95.60;;;29.12;43.42;102152.34;4994733;28;20037;-77
2021/08/13 10:27:20;;;;;;;8.50;5.82;;;29.50;94.40;;;29.23;41.61;102116.81;4982159;28;20505;-78
2021/08/13 10:29:47;;;;;;;14.20;6.00;;;29.60;94.90;;;29.44;40.71;102129.13;5007553;28;20041;-78
2021/08/13 10:32:24;;;;;;;11.15;5.85;;;29.60;94.60;;;28.94;43.94;102052.03;4999622;28;20045;-77
2021/08/13 10:34:50;;;;;;;12.57;5.95;;;29.80;94.60;;;29.52;42.23;102121.00;4999523;28;20033;-77